Qinglong, China
Current Conditions -  °F | °C
As of 9:30 PM on Sunday 21 Dec 2014 (Local Time) from ZBAA Reporting Station
Clear Clear  
Wind Chill: 21°   Ceiling: Unl
Heat Index: 27°   Visibility: 6mi
Dew Point:   Wind: 4mph
Humidity: 34%   Direction: 170°S
Pressure: 30.21"   Gusts: NA
Location:  40.4°N, 118.95°E
Report Text: ZBAA 211330Z 17002MPS 140V210 CAVOK M03/M17 Q1023 NOSIG
Loading
Personal Weather Stations






























Interactive Weather Map New forecast layout! Learn more

10-Day Weather Forecast

Advertisements
Track Severe Weather on mobile